Jersey Airport

EGJJ · St Helier, Jersey

METAR history EGJJ · Jersey Airport

Below you see METARs of the last few days. Select a year to browse through older METARs, from the year 2007 onwards.

May 23, 2024

Time Code Weather Temp. Visibility Ceiling Wind METAR/SPECI
03:20
I
13 °C 10 km+ 800 ft 250° 250° 11 kt METAR EGJJ 230220Z AUTO 25011KT 9999 FEW006/// BKN008/// OVC010/// 13/12 Q1015
02:50
I
13 °C 10 km+ 800 ft 250° 250° 12 kt METAR EGJJ 230150Z AUTO 25012KT 9999 BKN008/// OVC009/// 13/12 Q1015
02:20
M
13 °C 10 km+ 1,000 ft 250° 250° 13 kt METAR EGJJ 230120Z AUTO 25013KT 9999 BKN010/// BKN014/// BKN019/// 13/12 Q1015
01:50
M
13 °C 10 km+ 1,200 ft 240° 240° 11 kt METAR EGJJ 230050Z AUTO 24011KT 9999 SCT010/// OVC012/// 13/12 Q1015
01:20
M
13 °C 10 km+ 1,200 ft 240° 240° 12 kt METAR EGJJ 230020Z AUTO 24012KT 9999 OVC012/// 13/12 Q1015
00:50
M
13 °C 10 km+ 1,600 ft 240° 240° 10 kt METAR EGJJ 222350Z AUTO 24010KT 9999 OVC016/// 13/12 Q1015
00:20
M
13 °C 10 km+ 1,900 ft 250° 250° 10 kt METAR EGJJ 222320Z AUTO 25010KT 9999 BKN019/// 13/12 Q1015

May 22, 2024

Time Code Weather Temp. Visibility Ceiling Wind METAR/SPECI
23:50
V
12 °C 10 km+ - 250° 250° 11 kt METAR EGJJ 222250Z AUTO 25011KT 9999 NCD 12/11 Q1014
23:20
V
12 °C 10 km+ - 260° 260° 12 kt METAR EGJJ 222220Z AUTO 26012KT 9999 NCD 12/11 Q1015
22:50
V
12 °C 10 km+ - 260° 260° 12 kt METAR EGJJ 222150Z AUTO 26012KT 9999 NCD 12/11 Q1015
22:20
V
12 °C 10 km+ - 260° 260° 12 kt METAR EGJJ 222120Z 26012KT 9999 FEW014 12/11 Q1014
21:50
V
13 °C 10 km+ - 270° 270° 11 kt METAR EGJJ 222050Z 27011KT 9999 FEW014 13/11 Q1014
21:20
V
13 °C 10 km+ - 270° 270° 11 kt METAR EGJJ 222020Z 27011KT 9999 FEW014 13/11 Q1014
20:50
V
13 °C 10 km+ - 270° 270° 11 kt METAR EGJJ 221950Z 27011KT 9999 FEW008 13/11 Q1014
20:20
V
13 °C 10 km+ - 270° 270° 12 kt METAR EGJJ 221920Z 27012KT 9999 FEW008 13/11 Q1014
19:50
V
14 °C 10 km+ - 270° 270° 12 kt METAR EGJJ 221850Z 27012KT 9999 FEW008 14/12 Q1013
19:20
V
14 °C 10 km+ - 270° 270° 13 kt METAR EGJJ 221820Z 27013KT 9999 FEW008 14/12 Q1013
18:50
V
15 °C 10 km+ - 270° 270° 13 kt METAR EGJJ 221750Z 27013KT 240V300 9999 FEW010 15/12 Q1013
18:20
V
15 °C 10 km+ - 270° 270° 14 kt METAR EGJJ 221720Z 27014KT 240V300 9999 FEW010 15/12 Q1013
17:50
V
15 °C 10 km+ - 270° 270° 15 kt METAR EGJJ 221650Z 27015KT 9999 FEW010 15/12 Q1013
17:20
V
16 °C 10 km+ - 270° 270° 15 kt METAR EGJJ 221620Z 27015KT 9999 FEW010 16/12 Q1013
16:50
V
16 °C 10 km+ - 270° 270° 16 kt METAR EGJJ 221550Z 27016KT 240V300 9999 FEW010 16/12 Q1013
16:20
V
16 °C 10 km+ - 280° 280° 15 kt METAR EGJJ 221520Z 28015KT 9999 FEW009 16/12 Q1013
15:50
V
16 °C 10 km+ - 270° 270° 14 kt METAR EGJJ 221450Z 27014KT 250V310 9999 FEW009 16/12 Q1013
15:20
V
16 °C 10 km+ - 270° 270° 14 kt METAR EGJJ 221420Z 27014KT 250V310 9999 FEW009 16/13 Q1013
14:50
V
16 °C 10 km+ - 270° 270° 13 kt METAR EGJJ 221350Z 27013KT 9999 FEW009 16/13 Q1012
14:20
V
16 °C 10 km+ - 270° 270° 13 kt METAR EGJJ 221320Z 27013KT 240V300 9999 FEW008 16/13 Q1012
13:50
V
16 °C 10 km+ - 260° 260° 14 kt METAR EGJJ 221250Z 26014KT 240V300 9999 FEW009 16/13 Q1012
13:20
V
16 °C 10 km+ - 260° 260° 14 kt METAR EGJJ 221220Z 26014KT 230V290 9999 FEW010 16/13 Q1012
12:50
V
16 °C 10 km+ - 260° 260° 14 kt METAR EGJJ 221150Z 26014KT 9999 FEW009 16/13 Q1012
12:20
V
16 °C 10 km+ - 260° 260° 14 kt METAR EGJJ 221120Z 26014KT 9999 FEW010 16/13 Q1012
11:50
V
15 °C 10 km+ - 250° 250° 14 kt METAR EGJJ 221050Z 25014KT 9999 FEW010 SCT014 15/13 Q1012
11:20
V
15 °C 10 km+ - 250° 250° 15 kt METAR EGJJ 221020Z 25015KT 9999 FEW010 SCT013 15/12 Q1012
10:50
V
16 °C 10 km+ - 250° 250° 14 kt METAR EGJJ 220950Z 25014KT 9999 FEW012 16/13 Q1012
10:20
V
15 °C 10 km+ - 260° 260° 13 kt METAR EGJJ 220920Z 26013KT 9999 FEW011 SCT018 15/13 Q1012
09:50
M
15 °C 10 km+ 1,600 ft 270° 270° 12 kt METAR EGJJ 220850Z 27012KT 9999 FEW011 BKN016 15/12 Q1012
09:20
V
15 °C 10 km+ - 260° 260° 13 kt METAR EGJJ 220820Z 26013KT 9999 FEW011 SCT020 15/13 Q1012
08:50
V
15 °C 10 km+ - 270° 270° 12 kt METAR EGJJ 220750Z 27012KT 9999 FEW007 15/13 Q1011
08:20
V
15 °C 10 km+ - 260° 260° 13 kt METAR EGJJ 220720Z 26013KT 9999 FEW008 15/13 Q1011
07:50
M
15 °C 10 km+ 2,100 ft 260° 260° 13 kt METAR EGJJ 220650Z 26013KT 9999 FEW006 BKN021 15/14 Q1011
07:20
V
14 °C 10 km+ - 270° 270° 12 kt METAR EGJJ 220620Z 27012KT 9999 FEW005 SCT018 14/13 Q1011
06:50
V
14 °C 10 km+ - 270° 270° 12 kt METAR EGJJ 220550Z 27012KT 240V300 9999 FEW004 SCT020 14/13 Q1011
06:20
V
13 °C 10 km+ - 270° 270° 11 kt METAR EGJJ 220520Z 27011KT 9999 FEW004 SCT006 13/13 Q1010
05:50
I
13 °C 9 km 500 ft 270° 270° 12 kt METAR EGJJ 220450Z 27012KT 9000 FEW004 BKN005 13/13 Q1010
05:20
L
13 °C 9 km 400 ft 270° 270° 13 kt METAR EGJJ 220420Z AUTO 27013KT 9000 BKN004/// OVC005/// 13/12 Q1010
04:50
L
13 °C 9 km 300 ft 270° 270° 13 kt METAR EGJJ 220350Z AUTO 27013KT 9000 OVC003/// 13/13 Q1010
04:20
L
13 °C 10 km+ 400 ft 270° 270° 15 kt METAR EGJJ 220320Z AUTO 27015KT 9999 OVC004/// 13/13 Q1010
03:50
I
13 °C 10 km+ 600 ft 270° 270° 15 kt METAR EGJJ 220250Z AUTO 27015KT 9999 BKN006/// BKN009/// OVC014/// 13/13 Q1010
03:20
M
13 °C 10 km+ 1,200 ft 270° 270° 15 kt METAR EGJJ 220220Z AUTO 27015KT 9999 FEW008/// OVC012/// 13/13 Q1010
02:50
I
13 °C 10 km+ 700 ft 260° 260° 15 kt METAR EGJJ 220150Z AUTO 26015KT 9999 SCT006/// BKN007/// OVC008/// 13/13 Q1010
02:20
I
13 °C 10 km+ 500 ft 260° 260° 14 kt METAR EGJJ 220120Z AUTO 26014KT 9999 BKN005/// OVC007/// 13/13 Q1011
01:50
I
13 °C 10 km+ 600 ft 270° 270° 14 - 24 kt METAR EGJJ 220050Z AUTO 27014G24KT 9999 BKN006/// OVC007/// 13/13 Q1010
01:20
I
13 °C 10 km+ 600 ft 260° 260° 13 kt METAR EGJJ 220020Z AUTO 26013KT 9999 SCT005/// OVC006/// 13/13 Q1011
00:50
L
13 °C 10 km+ 400 ft 270° 270° 12 kt METAR EGJJ 212350Z AUTO 27012KT 9999 BKN004/// OVC005/// 13/13 Q1011
00:20
L
13 °C 10 km+ 400 ft 270° 270° 12 kt METAR EGJJ 212320Z AUTO 27012KT 9999 OVC004/// 13/13 Q1011

May 21, 2024

Time Code Weather Temp. Visibility Ceiling Wind METAR/SPECI
23:50
L
13 °C 10 km+ 400 ft 260° 260° 13 kt METAR EGJJ 212250Z AUTO 26013KT 9999 OVC004/// 13/13 Q1011
23:20
L
13 °C 9 km 400 ft 270° 270° 13 - 23 kt METAR EGJJ 212220Z AUTO 27013G23KT 240V310 9000 BKN004/// BKN005/// OVC006/// 13/13 Q1011
22:50
L
13 °C 7 km 300 ft 270° 270° 12 kt METAR EGJJ 212150Z AUTO 27012KT 240V300 7000 OVC003/// 13/13 Q1011
22:20
L
13 °C 8 km 400 ft 260° 260° 12 kt METAR EGJJ 212120Z AUTO 26012KT 8000 OVC004/// 13/13 Q1011
21:50
L
14 °C 8 km 400 ft 260° 260° 10 kt METAR EGJJ 212050Z AUTO 26010KT 8000 OVC004/// 14/13 Q1011
21:20
I
14 °C 10 km+ 700 ft 260° 260° 12 kt METAR EGJJ 212020Z 26012KT 9999 FEW003 BKN007 14/13 Q1010
20:20
L
14 °C 6 km 400 ft 260° 260° 12 kt METAR EGJJ 211920Z 26012KT 6000 FEW002 BKN004 14/13 Q1010
19:50
I
14 °C 8 km 500 ft 260° 260° 12 kt METAR EGJJ 211850Z 26012KT 8000 FEW002 BKN005 14/13 Q1010
19:20
V
15 °C 10 km+ - 260° 260° 11 kt METAR EGJJ 211820Z 26011KT 9999 FEW004 15/13 Q1010
18:50
V
15 °C 10 km+ - 270° 270° 11 kt METAR EGJJ 211750Z 27011KT 9999 FEW004 15/13 Q1010
18:20
V
16 °C 10 km+ - 260° 260° 13 kt METAR EGJJ 211720Z 26013KT 9999 FEW004 16/14 Q1010
17:50
I
16 °C 10 km+ 800 ft 260° 260° 12 kt METAR EGJJ 211650Z 26012KT 9999 FEW005 BKN008 16/13 Q1010
17:20
V
16 °C 10 km+ - 250° 250° 11 kt METAR EGJJ 211620Z 25011KT 9999 FEW006 SCT009 16/14 Q1010
16:50
I
16 °C 10 km+ 900 ft 260° 260° 9 kt METAR EGJJ 211550Z 26009KT 220V290 9999 BKN009 16/13 Q1010
16:20
V
15 °C 10 km+ - 240° 240° 8 kt METAR EGJJ 211520Z 24008KT 9999 FEW008 15/12 Q1010
15:50
V
17 °C 10 km+ - 250° 250° 8 kt METAR EGJJ 211450Z 25008KT 220V280 9999 FEW012 17/13 Q1010
15:20
V
15 °C 10 km+ - 250° 250° 7 kt METAR EGJJ 211420Z 25007KT 9999 FEW006 15/12 Q1010
14:50
V
17 °C 10 km+ - 250° 250° 6 kt METAR EGJJ 211350Z 25006KT 190V290 9999 FEW006 17/13 Q1010
14:20
V
17 °C 10 km+ - 250° 250° 4 kt METAR EGJJ 211320Z 25004KT 180V300 9999 FEW007 SCT009 17/13 Q1010
13:50
V
15 °C 10 km+ - 260° 260° 5 kt METAR EGJJ 211250Z 26005KT 210V300 9999 FEW006 SCT009 15/12 Q1010
13:20
I
15 °C 10 km+ 900 ft 260° 260° 6 kt METAR EGJJ 211220Z 26006KT 230V300 9999 VCSH FEW006 BKN009 15/12 Q1010
12:50
I
16 °C 10 km+ 900 ft 270° 270° 4 kt METAR EGJJ 211150Z 27004KT 220V340 9999 FEW006 BKN009 16/13 Q1010
12:20
I
14 °C 10 km+ 900 ft 260° 260° 6 kt METAR EGJJ 211120Z 26006KT 230V290 9999 FEW007 BKN009 14/12 Q1011
11:50
I
14 °C 10 km+ 700 ft 350° 350° 3 kt METAR EGJJ 211050Z 35003KT 300V030 9999 BKN007 14/12 Q1010
11:20
I
14 °C 10 km+ 700 ft 350° 350° 3 kt METAR EGJJ 211020Z 35003KT 300V060 9999 -RA BKN007 14/12 Q1010
10:50
V
13 °C 10 km+ - 360° 360° 3 kt METAR EGJJ 210950Z 36003KT 320V030 9999 -RA FEW006 13/12 Q1010
10:20
V
13 °C 10 km+ - 360° 360° 3 kt METAR EGJJ 210920Z 36003KT 320V060 9999 VCSH FEW007 SCT035 13/11 Q1010
09:50
V
13 °C 10 km+ - 010° 010° 3 kt METAR EGJJ 210850Z 01003KT 320V030 9999 VCSH SCT031 13/11 Q1010
09:20
V
14 °C 10 km+ - 030° 030° 5 kt METAR EGJJ 210820Z 03005KT 9999 -RA FEW028 14/11 Q1010
08:50
V
14 °C 10 km+ - 060° 060° 7 kt METAR EGJJ 210750Z 06007KT 030V090 9999 FEW010 14/12 Q1009
08:20
V
13 °C 10 km+ - 060° 060° 7 kt METAR EGJJ 210720Z 06007KT 010V100 9999 FEW008 13/11 Q1009
07:50
V
13 °C 10 km+ - 070° 070° 7 kt METAR EGJJ 210650Z 07007KT 040V110 9999 FEW008 13/11 Q1009
07:20
V
14 °C 10 km+ - 080° 080° 8 kt METAR EGJJ 210620Z 08008KT 9999 FEW008 SCT044 14/12 Q1009
06:50
V
13 °C 10 km+ - 060° 060° 6 kt METAR EGJJ 210550Z 06006KT 020V090 9999 FEW006 13/11 Q1009
06:20
V
12 °C 10 km+ - 040° 040° 7 kt METAR EGJJ 210520Z 04007KT 010V090 9999 FEW006 12/11 Q1009
05:50
V
12 °C 10 km+ - 040° 040° 7 kt METAR EGJJ 210450Z 04007KT 010V070 9999 FEW010 12/11 Q1009
05:20
V
12 °C 10 km+ - 030° 030° 6 kt METAR EGJJ 210420Z AUTO 03006KT 360V070 9999 NCD 12/11 Q1009
04:50
V
12 °C 10 km+ - 030° 030° 7 kt METAR EGJJ 210350Z AUTO 03007KT 010V070 9999 NCD 12/11 Q1009
04:20
V
13 °C 10 km+ - 030° 030° 12 kt METAR EGJJ 210320Z AUTO 03012KT 9999 NCD 13/11 Q1009
03:50
V
13 °C 10 km+ - 020° 020° 12 kt METAR EGJJ 210250Z AUTO 02012KT 350V050 9999 NCD 13/11 Q1009
03:20
V
13 °C 10 km+ - 020° 020° 11 kt METAR EGJJ 210220Z AUTO 02011KT 9999 NCD 13/12 Q1009
02:50
V
13 °C 10 km+ - 040° 040° 10 kt METAR EGJJ 210150Z AUTO 04010KT 360V070 9999 NCD 13/11 Q1009
02:20
V
13 °C 10 km+ - 020° 020° 9 kt METAR EGJJ 210120Z AUTO 02009KT 350V050 9999 NCD 13/11 Q1009
01:50
V
13 °C 10 km+ - 040° 040° 9 kt METAR EGJJ 210050Z AUTO 04009KT 010V080 9999 NCD 13/11 Q1009
01:20
V
13 °C 10 km+ - 050° 050° 10 kt METAR EGJJ 210020Z AUTO 05010KT 020V080 9999 NCD 13/10 Q1010
00:50
V
12 °C 10 km+ - 040° 040° 7 kt METAR EGJJ 202350Z AUTO 04007KT 010V080 9999 NCD 12/10 Q1010
00:20
V
13 °C 10 km+ - 040° 040° 7 kt METAR EGJJ 202320Z AUTO 04007KT 020V080 9999 NCD 13/10 Q1010

May 20, 2024

Time Code Weather Temp. Visibility Ceiling Wind METAR/SPECI
23:50
V
13 °C 10 km+ - 060° 060° 6 kt METAR EGJJ 202250Z AUTO 06006KT 010V090 9999 NCD 13/10 Q1010
23:20
V
13 °C 10 km+ - 040° 040° 4 kt METAR EGJJ 202220Z AUTO 04004KT 340V090 9999 NCD 13/10 Q1010
22:50
V
14 °C 10 km+ - Var Var 3 kt METAR EGJJ 202150Z AUTO VRB03KT 9999 NCD 14/09 Q1010
22:20
V
14 °C 10 km+ - 060° 060° 6 kt METAR EGJJ 202120Z AUTO 06006KT 020V100 9999 NCD 14/09 Q1010
21:50
V
14 °C 10 km+ - 070° 070° 8 kt METAR EGJJ 202050Z AUTO 07008KT 030V100 9999 NCD 14/09 Q1010
21:20
V
14 °C 10 km+ - 060° 060° 8 kt METAR EGJJ 202020Z 06008KT 020V100 9999 FEW042 14/09 Q1010
20:50
V
14 °C 10 km+ - 060° 060° 7 kt METAR EGJJ 201950Z 06007KT 030V100 9999 FEW045 14/10 Q1010
20:20
V
14 °C 10 km+ - 040° 040° 6 kt METAR EGJJ 201920Z 04006KT 010V070 9999 FEW045 14/11 Q1010
19:50
V
15 °C 10 km+ - 040° 040° 10 kt METAR EGJJ 201850Z 04010KT 360V070 9999 FEW045 15/11 Q1010
19:20
V
16 °C 10 km+ - 030° 030° 10 kt METAR EGJJ 201820Z 03010KT 360V070 9999 FEW045 16/11 Q1010
18:50
V
15 °C 10 km+ - 020° 020° 13 kt METAR EGJJ 201750Z 02013KT 360V060 9999 FEW045 15/11 Q1009
18:20
V
16 °C 10 km+ - 020° 020° 11 kt METAR EGJJ 201720Z 02011KT 350V060 9999 FEW045 16/11 Q1010
17:50
V
17 °C 10 km+ - 040° 040° 11 kt METAR EGJJ 201650Z 04011KT 360V080 9999 FEW045 17/10 Q1010
17:20
V
18 °C 10 km+ - 050° 050° 12 kt METAR EGJJ 201620Z 05012KT 010V090 9999 FEW045 18/11 Q1010
16:50
V
18 °C 10 km+ - 040° 040° 10 kt METAR EGJJ 201550Z 04010KT 360V090 9999 FEW045 18/12 Q1010
16:20
V
18 °C 10 km+ - 030° 030° 11 kt METAR EGJJ 201520Z 03011KT 360V080 9999 FEW045 18/13 Q1010
15:50
V
18 °C 10 km+ - 050° 050° 11 kt METAR EGJJ 201450Z 05011KT 360V090 9999 FEW045 18/12 Q1010
15:20
V
18 °C 10 km+ - 040° 040° 10 - 21 kt METAR EGJJ 201420Z 04010G21KT 360V110 CAVOK 18/12 Q1011
14:50
V
17 °C 10 km+ - 040° 040° 13 kt METAR EGJJ 201350Z 04013KT 360V090 CAVOK 17/12 Q1011
14:20
V
18 °C 10 km+ - 030° 030° 12 kt METAR EGJJ 201320Z 03012KT 360V080 9999 FEW030 18/12 Q1011
13:50
V
17 °C 10 km+ - 040° 040° 11 kt METAR EGJJ 201250Z 04011KT 360V090 9999 FEW020 17/11 Q1011
13:20
V
18 °C 10 km+ - 030° 030° 12 kt METAR EGJJ 201220Z 03012KT 350V070 9999 FEW020 18/12 Q1011
12:50
V
17 °C 10 km+ - 040° 040° 9 kt METAR EGJJ 201150Z 04009KT 360V080 9999 FEW020 17/12 Q1012
12:20
V
18 °C 10 km+ - 050° 050° 10 kt METAR EGJJ 201120Z 05010KT 010V080 9999 FEW020 18/12 Q1012
11:50
V
17 °C 10 km+ - 060° 060° 11 kt METAR EGJJ 201050Z 06011KT 020V090 CAVOK 17/12 Q1012
11:20
V
18 °C 10 km+ - 040° 040° 10 kt METAR EGJJ 201020Z 04010KT 350V080 CAVOK 18/12 Q1012
10:50
V
17 °C 10 km+ - 040° 040° 10 kt METAR EGJJ 200950Z 04010KT 360V090 9999 FEW020 17/12 Q1012
10:20
V
17 °C 10 km+ - 050° 050° 11 kt METAR EGJJ 200920Z 05011KT 360V090 9999 FEW018 17/12 Q1012
09:50
V
16 °C 10 km+ - 040° 040° 11 kt METAR EGJJ 200850Z 04011KT 360V080 9999 FEW018 16/11 Q1012
09:20
V
16 °C 10 km+ - 050° 050° 12 kt METAR EGJJ 200820Z 05012KT 020V090 9999 FEW016 16/11 Q1012
08:50
V
15 °C 10 km+ - 060° 060° 12 kt METAR EGJJ 200750Z 06012KT 030V100 9999 FEW016 15/11 Q1012
08:20
V
15 °C 10 km+ - 060° 060° 12 kt METAR EGJJ 200720Z 06012KT 030V100 9999 FEW016 15/11 Q1012
07:50
V
15 °C 10 km+ - 060° 060° 12 kt METAR EGJJ 200650Z 06012KT 020V090 CAVOK 15/11 Q1012
07:20
V
14 °C 10 km+ - 050° 050° 9 kt METAR EGJJ 200620Z 05009KT 010V080 CAVOK 14/11 Q1012
06:50
V
13 °C 10 km+ - 060° 060° 9 kt METAR EGJJ 200550Z 06009KT CAVOK 13/11 Q1012
Report a change